Time;durP1;ratioP1;P1;durP2;ratioP2;P2;SDS_P1;SDS_P2;PMS_P1;PMS_P2;Temp;Humidity;BMP_temperature;BMP_pressure;BME280_temperature;BME280_humidity;BME280_pressure;Samples;Min_cycle;Max_cycle;Signal;HPM_P1;HPM_P2
2022/04/07 00:01:32;;;;;;;7.62;3.33;;;;;;;3.64;61.43;101464.30;1924603;74;21482;-60
2022/04/07 00:04:01;;;;;;;6.33;3.33;;;;;;;3.62;61.53;101460.37;1924682;74;21110;-58
2022/04/07 00:06:30;;;;;;;10.30;3.50;;;;;;;3.60;61.28;101457.35;1924603;74;21054;-60
2022/04/07 00:09:02;;;;;;;7.47;4.08;;;;;;;3.61;61.12;101459.07;1903999;74;21040;-60
2022/04/07 00:11:29;;;;;;;4.72;3.27;;;;;;;3.59;61.23;101451.69;1891254;75;21048;-62
2022/04/07 00:13:58;;;;;;;7.47;3.58;;;;;;;3.57;61.63;101454.73;1891448;76;21048;-59
2022/04/07 00:16:27;;;;;;;7.40;3.70;;;;;;;3.52;61.83;101453.41;1891572;76;21150;-60
2022/04/07 00:18:57;;;;;;;8.48;3.50;;;;;;;3.45;62.53;101453.85;1891644;76;21122;-61
2022/04/07 00:21:35;;;;;;;7.87;3.00;;;;;;;3.41;62.26;101449.52;1891521;76;21101;-60
2022/04/07 00:23:56;;;;;;;4.30;2.58;;;;;;;3.39;62.24;101449.91;1890191;75;21102;-58
2022/04/07 00:26:25;;;;;;;6.50;3.30;;;;;;;3.38;61.88;101441.69;1891412;76;21015;-60
2022/04/07 00:28:53;;;;;;;12.00;3.62;;;;;;;3.37;61.62;101443.84;1891605;76;21043;-59
2022/04/07 00:31:22;;;;;;;10.75;3.67;;;;;;;3.37;61.46;101437.33;1891440;76;21043;-64
2022/04/07 00:33:51;;;;;;;6.58;3.08;;;;;;;3.36;61.32;101440.82;1891456;75;21638;-60
2022/04/07 00:36:19;;;;;;;7.40;3.20;;;;;;;3.35;61.15;101445.58;1891300;76;21047;-60
2022/04/07 00:38:48;;;;;;;8.48;4.80;;;;;;;3.33;61.07;101442.55;1891563;75;21130;-62
2022/04/07 00:41:16;;;;;;;8.45;3.70;;;;;;;3.32;61.10;101444.28;1891433;76;21012;-61
2022/04/07 00:43:48;;;;;;;7.55;3.58;;;;;;;3.29;61.42;101439.06;1891623;75;21047;-64
2022/04/07 00:46:16;;;;;;;11.80;3.50;;;;;;;3.26;61.26;101442.95;1891428;76;21106;-62
2022/04/07 00:48:45;;;;;;;8.35;3.05;;;;;;;3.23;61.07;101445.12;1893454;74;21075;-62
2022/04/07 00:51:14;;;;;;;14.75;3.90;;;;;;;3.21;61.02;101442.06;1891501;76;21036;-60
2022/04/07 00:53:45;;;;;;;4.10;3.20;;;;;;;3.18;61.22;101440.77;1891401;76;21043;-59
2022/04/07 00:56:14;;;;;;;12.88;4.92;;;;;;;3.15;61.19;101436.41;1891464;75;21016;-61
2022/04/07 00:58:44;;;;;;;15.75;4.30;;;;;;;3.12;61.19;101436.83;1916825;74;21520;-59
2022/04/07 01:01:14;;;;;;;11.90;4.30;;;;;;;3.07;61.29;101431.19;1924653;74;21110;-60
2022/04/07 01:03:43;;;;;;;10.85;5.15;;;;;;;3.06;61.26;101439.88;1908864;74;21015;-72
2022/04/07 01:06:12;;;;;;;10.70;4.70;;;;;;;3.04;61.13;101426.41;1898964;74;21059;-61
2022/04/07 01:08:40;;;;;;;12.07;5.05;;;;;;;3.02;61.07;101425.09;1907141;74;21035;-62
2022/04/07 01:11:10;;;;;;;7.40;3.95;;;;;;;2.99;61.21;101426.41;1891539;75;21141;-61
2022/04/07 01:13:50;;;;;;;7.22;3.55;;;;;;;2.99;61.01;101429.02;1893587;74;21007;-62
2022/04/07 01:16:20;;;;;;;4.87;3.20;;;;;;;2.98;61.09;101428.56;1891397;76;21101;-63
2022/04/07 01:18:49;;;;;;;5.67;3.22;;;;;;;2.99;61.04;101425.11;1892963;74;21031;-61
2022/04/07 01:21:20;;;;;;;11.05;4.72;;;;;;;2.98;61.17;101420.75;1980163;72;21129;-61
2022/04/07 01:24:04;;;;;;;9.65;6.55;;;;;;;2.97;61.13;101425.54;1957562;73;21003;-60
2022/04/07 01:26:44;;;;;;;9.63;5.25;;;;;;;2.95;61.36;101425.08;1956287;73;21039;-60
2022/04/07 01:29:14;;;;;;;14.23;4.60;;;;;;;2.88;62.61;101432.88;1958352;72;21047;-59
2022/04/07 01:31:44;;;;;;;13.10;5.33;;;;;;;2.80;63.12;101431.09;1993013;72;21015;-62
2022/04/07 01:34:17;;;;;;;18.45;6.70;;;;;;;2.80;62.77;101428.50;1979368;72;21592;-62
2022/04/07 01:36:48;;;;;;;14.03;6.08;;;;;;;2.79;62.68;101422.88;1958186;72;20991;-61
2022/04/07 01:39:21;;;;;;;8.35;4.30;;;;;;;2.78;63.01;101419.82;1965563;72;21008;-62
2022/04/07 01:41:50;;;;;;;10.90;5.43;;;;;;;2.72;63.18;101417.20;1981003;72;21020;-70
2022/04/07 01:44:20;;;;;;;7.67;4.05;;;;;;;2.67;63.52;101421.97;1980562;72;21016;-65
2022/04/07 01:46:51;;;;;;;9.10;3.77;;;;;;;2.62;63.39;101427.56;1980685;72;21081;-62
2022/04/07 01:49:21;;;;;;;14.28;6.17;;;;;;;2.59;63.23;101424.94;1980681;72;21008;-62
2022/04/07 01:51:51;;;;;;;9.40;4.08;;;;;;;2.53;63.58;101425.33;1969025;72;21547;-61
2022/04/07 01:54:20;;;;;;;19.25;6.42;;;;;;;2.41;64.08;101423.11;1957514;73;21046;-61
2022/04/07 01:56:49;;;;;;;10.23;4.12;;;;;;;2.32;64.61;101420.45;1957344;73;21011;-65
2022/04/07 01:59:20;;;;;;;16.07;5.17;;;;;;;2.29;64.35;101425.22;1957462;73;21560;-64
2022/04/07 02:01:49;;;;;;;11.80;4.15;;;;;;;2.27;64.05;101425.64;1957446;73;21449;-62
2022/04/07 02:04:17;;;;;;;5.20;4.15;;;;;;;2.26;63.78;101421.73;1957493;73;21034;-62
2022/04/07 02:06:46;;;;;;;9.25;3.65;;;;;;;2.27;63.59;101423.05;1957399;73;21007;-62
2022/04/07 02:09:15;;;;;;;22.67;6.20;;;;;;;2.26;63.50;101421.73;1983480;72;21058;-62
2022/04/07 02:11:44;;;;;;;10.53;5.03;;;;;;;2.24;63.51;101420.42;1993096;72;21000;-62
2022/04/07 02:14:13;;;;;;;15.08;5.72;;;;;;;2.21;64.01;101418.23;1992835;72;21474;-60
2022/04/07 02:16:41;;;;;;;7.92;4.22;;;;;;;2.17;65.00;101423.83;1962709;72;21090;-59
2022/04/07 02:19:10;;;;;;;7.65;3.58;;;;;;;2.16;64.54;101416.91;1958928;72;21034;-59
2022/04/07 02:21:39;;;;;;;10.60;3.75;;;;;;;2.16;64.18;101414.31;1959685;73;21505;-60
2022/04/07 02:24:10;;;;;;;12.15;4.35;;;;;;;2.17;63.95;101416.03;1960425;73;21521;-58
2022/04/07 02:26:39;;;;;;;12.25;5.10;;;;;;;2.18;63.69;101416.48;1994622;72;21015;-59
2022/04/07 02:29:07;;;;;;;8.53;3.75;;;;;;;2.18;63.55;101408.70;1995628;72;21114;-60
2022/04/07 02:31:36;;;;;;;17.27;4.62;;;;;;;2.18;63.51;101411.30;1995672;72;21035;-58
2022/04/07 02:34:05;;;;;;;9.70;4.15;;;;;;;2.20;63.86;101408.27;1995785;72;21071;-59
2022/04/07 02:36:33;;;;;;;7.28;3.37;;;;;;;2.22;63.86;101405.25;1967504;72;21089;-60
2022/04/07 02:39:02;;;;;;;10.58;2.95;;;;;;;2.21;63.64;101408.69;1960484;73;21110;-60
2022/04/07 02:41:31;;;;;;;8.55;3.92;;;;;;;2.19;64.31;101406.95;1960330;73;21091;-61
2022/04/07 02:44:02;;;;;;;6.87;2.85;;;;;;;2.16;64.42;101409.13;1964836;72;21600;-62
2022/04/07 02:46:30;;;;;;;11.12;5.78;;;;;;;2.11;64.72;101405.62;1971835;72;21008;-60
2022/04/07 02:48:58;;;;;;;10.03;3.37;;;;;;;2.06;64.53;101409.91;1970123;72;21016;-60
2022/04/07 02:51:28;;;;;;;8.58;4.55;;;;;;;2.03;64.80;101412.47;1963968;72;21181;-60
2022/04/07 02:53:58;;;;;;;25.68;14.20;;;;;;;2.01;64.47;101414.19;1981925;72;21035;-60
2022/04/07 02:56:28;;;;;;;7.10;6.47;;;;;;;2.00;64.27;101409.87;1966219;72;21051;-60
2022/04/07 02:58:57;;;;;;;25.62;13.80;;;;;;;2.00;64.11;101410.73;1960920;72;21107;-60
2022/04/07 03:01:26;;;;;;;29.48;14.58;;;;;;;1.98;63.93;101411.59;1961717;72;21127;-62
2022/04/07 03:03:55;;;;;;;16.95;9.43;;;;;;;1.99;63.82;101410.72;1964480;72;21079;-61
2022/04/07 03:06:24;;;;;;;9.00;5.15;;;;;;;2.01;63.81;101411.59;1961948;72;21537;-62
2022/04/07 03:08:53;;;;;;;11.43;5.95;;;;;;;2.01;63.83;101407.30;1960877;72;21029;-62
2022/04/07 03:11:21;;;;;;;13.40;6.25;;;;;;;2.02;63.72;101409.45;1966043;72;21090;-61
2022/04/07 03:13:50;;;;;;;12.35;6.05;;;;;;;2.05;63.83;101408.19;1962206;72;21106;-61
2022/04/07 03:16:19;;;;;;;10.38;4.85;;;;;;;2.03;64.61;101400.78;1985153;72;21031;-61
2022/04/07 03:18:47;;;;;;;15.72;5.47;;;;;;;2.03;64.71;101400.78;1996004;72;21106;-60
2022/04/07 03:21:16;;;;;;;7.15;3.25;;;;;;;2.03;64.93;101396.88;1998372;71;21019;-61
2022/04/07 03:23:44;;;;;;;9.95;4.35;;;;;;;2.07;65.07;101397.37;2003972;71;21152;-61
2022/04/07 03:26:13;;;;;;;8.10;4.35;;;;;;;2.18;64.85;101406.09;2001845;71;21080;-62
2022/04/07 03:28:42;;;;;;;13.50;5.65;;;;;;;2.34;64.72;101407.48;2004172;71;21078;-61
2022/04/07 03:31:10;;;;;;;14.53;7.08;;;;;;;2.51;64.62;101403.25;2004200;71;21035;-61
2022/04/07 03:33:39;;;;;;;12.53;4.80;;;;;;;2.74;64.44;101411.14;2004159;71;21106;-62
2022/04/07 03:36:08;;;;;;;3.92;3.00;;;;;;;2.97;64.18;101417.73;1978532;71;21116;-62
2022/04/07 03:38:38;;;;;;;10.25;6.00;;;;;;;3.19;63.98;101416.47;1968529;73;21437;-62
2022/04/07 03:41:06;;;;;;;11.28;5.25;;;;;;;3.43;63.65;101419.14;1968564;73;21437;-60
2022/04/07 03:43:35;;;;;;;11.03;5.05;;;;;;;3.68;63.53;101415.23;1968643;73;21081;-62
2022/04/07 03:46:04;;;;;;;2.67;2.35;;;;;;;3.91;63.33;101415.66;1971123;71;21504;-60
2022/04/07 03:48:33;;;;;;;14.38;4.25;;;;;;;4.14;63.05;101407.83;1968783;73;21039;-60
2022/04/07 03:51:01;;;;;;;6.75;3.50;;;;;;;4.41;62.71;101409.52;1968729;73;21049;-62
2022/04/07 03:53:30;;;;;;;16.62;4.83;;;;;;;4.69;62.45;101409.42;1968606;73;21477;-62
2022/04/07 03:55:59;;;;;;;8.23;4.62;;;;;;;5.05;61.99;101407.05;1968643;73;21023;-60
2022/04/07 03:58:29;;;;;;;10.38;6.45;;;;;;;5.45;61.81;101406.80;1968509;73;21092;-62
2022/04/07 04:01:00;;;;;;;20.00;8.23;;;;;;;5.82;61.62;101404.35;1984839;71;21141;-60
2022/04/07 04:03:28;;;;;;;16.93;10.38;;;;;;;6.18;61.53;101405.34;2004373;71;21027;-60
2022/04/07 04:05:57;;;;;;;17.00;9.70;;;;;;;6.54;61.35;101396.65;2004178;71;21085;-62
2022/04/07 04:08:25;;;;;;;11.65;6.05;;;;;;;6.89;61.16;101394.48;2004372;71;21007;-61
2022/04/07 04:10:54;;;;;;;10.88;4.53;;;;;;;7.23;60.92;101393.58;1994398;71;21314;-63
2022/04/07 04:13:23;;;;;;;9.93;5.08;;;;;;;7.52;60.62;101397.49;1968838;71;21477;-62
2022/04/07 04:15:51;;;;;;;11.95;5.35;;;;;;;7.82;60.39;101405.31;2004160;71;21023;-61
2022/04/07 04:18:20;;;;;;;11.93;5.47;;;;;;;8.10;60.23;101399.59;2004180;71;21047;-60
2022/04/07 04:20:49;;;;;;;9.18;5.35;;;;;;;8.40;60.04;101399.90;2004405;71;21105;-61
2022/04/07 04:23:17;;;;;;;11.95;5.40;;;;;;;8.66;59.88;101396.78;1968870;71;21477;-60
2022/04/07 04:25:46;;;;;;;13.72;5.05;;;;;;;8.93;59.65;101394.03;1957451;73;21011;-61
2022/04/07 04:28:15;;;;;;;12.95;5.08;;;;;;;9.21;59.43;101392.09;1957581;73;21512;-62
2022/04/07 04:30:44;;;;;;;9.83;5.33;;;;;;;9.44;59.28;101388.92;1957571;73;21457;-61
2022/04/07 04:33:13;;;;;;;9.73;4.70;;;;;;;9.81;58.98;101386.27;1959030;72;21051;-61
2022/04/07 04:35:42;;;;;;;13.05;6.25;;;;;;;10.10;58.79;101381.13;1957578;73;21058;-61
2022/04/07 04:38:10;;;;;;;14.13;5.53;;;;;;;10.41;58.54;101376.78;1957476;73;21030;-61
2022/04/07 04:40:39;;;;;;;10.93;5.15;;;;;;;10.70;58.43;101368.97;1957652;73;21097;-62
2022/04/07 04:43:07;;;;;;;15.23;6.55;;;;;;;10.91;58.20;101371.41;1957540;73;21116;-60
2022/04/07 04:45:36;;;;;;;13.13;5.75;;;;;;;11.16;57.87;101365.78;1957558;73;21101;-59
2022/04/07 04:48:06;;;;;;;14.35;6.55;;;;;;;11.45;57.52;101366.61;1959291;72;21509;-61
2022/04/07 04:50:35;;;;;;;15.10;6.58;;;;;;;11.69;57.02;101364.08;1957469;73;21027;-62
2022/04/07 04:53:04;;;;;;;14.60;7.03;;;;;;;12.04;56.73;101359.39;1957521;73;21023;-61
2022/04/07 04:55:33;;;;;;;19.75;7.10;;;;;;;12.31;56.06;101358.41;1957541;73;21046;-60
2022/04/07 04:58:01;;;;;;;14.63;6.55;;;;;;;12.64;55.90;101354.59;1959009;72;21018;-60
2022/04/07 05:00:30;;;;;;;16.35;6.67;;;;;;;13.02;55.52;101356.19;1957529;73;20999;-60
2022/04/07 05:02:59;;;;;;;11.97;6.30;;;;;;;13.31;55.00;101353.73;1957581;73;21104;-61
2022/04/07 05:05:27;;;;;;;19.00;11.10;;;;;;;13.57;54.64;101349.16;1957622;73;21157;-61
2022/04/07 05:07:56;;;;;;;24.32;13.03;;;;;;;13.92;54.18;101350.77;1957652;72;21133;-60
2022/04/07 05:10:25;;;;;;;21.80;10.35;;;;;;;14.33;53.55;101342.78;1992600;72;21023;-61
2022/04/07 05:12:54;;;;;;;18.80;8.33;;;;;;;14.71;52.73;101340.20;1993043;72;21486;-61
2022/04/07 05:15:23;;;;;;;22.30;9.58;;;;;;;14.84;52.55;101345.31;1993251;72;21035;-61
2022/04/07 05:17:52;;;;;;;25.60;11.25;;;;;;;15.09;51.99;101338.38;1993013;72;21102;-61
2022/04/07 05:20:22;;;;;;;23.12;9.73;;;;;;;15.36;51.34;101336.18;1963709;72;21465;-60
2022/04/07 05:22:50;;;;;;;21.73;9.55;;;;;;;15.73;51.01;101329.02;1958582;73;21144;-60
2022/04/07 05:25:19;;;;;;;20.48;10.38;;;;;;;16.00;50.43;101332.05;1960440;73;21442;-61
2022/04/07 05:27:48;;;;;;;42.25;18.02;;;;;;;16.29;49.94;101330.13;1960649;73;21515;-59
2022/04/07 05:30:16;;;;;;;25.45;10.13;;;;;;;16.66;49.26;101330.79;1976525;72;21027;-60
2022/04/07 05:32:46;;;;;;;24.05;11.18;;;;;;;17.03;48.87;101326.09;1995859;72;21125;-59
2022/04/07 05:35:18;;;;;;;27.60;11.18;;;;;;;17.31;48.36;101320.89;1995878;72;21442;-61
2022/04/07 05:37:47;;;;;;;29.65;11.68;;;;;;;17.58;47.68;101322.89;1995840;72;21039;-59
2022/04/07 05:40:15;;;;;;;28.75;12.30;;;;;;;17.89;46.82;101323.28;1995794;72;21078;-61
2022/04/07 05:42:44;;;;;;;33.98;14.47;;;;;;;18.13;46.32;101322.26;1995619;72;21077;-61
2022/04/07 05:45:12;;;;;;;28.73;14.00;;;;;;;18.28;45.87;101320.93;1973512;72;21007;-60
2022/04/07 05:47:42;;;;;;;24.50;11.10;;;;;;;18.37;45.28;101315.02;1960540;73;21100;-61
2022/04/07 05:50:12;;;;;;;27.32;10.98;;;;;;;18.50;45.35;101308.45;1960518;73;21445;-62
2022/04/07 05:52:40;;;;;;;25.10;10.85;;;;;;;18.64;44.36;101310.22;1960490;73;21477;-62
2022/04/07 05:55:09;;;;;;;23.80;11.53;;;;;;;18.77;43.46;101311.13;1962453;72;21043;-62
2022/04/07 05:57:38;;;;;;;21.07;10.15;;;;;;;18.88;43.11;101303.31;1960389;73;21031;-60
2022/04/07 06:00:12;;;;;;;22.70;10.15;;;;;;;19.06;43.03;101304.42;1960476;73;21501;-61
2022/04/07 06:02:42;;;;;;;21.62;10.30;;;;;;;19.25;42.38;101310.23;1960621;73;21470;-61
2022/04/07 06:05:14;;;;;;;19.60;8.80;;;;;;;19.36;42.28;101296.17;1960319;73;21409;-60
2022/04/07 06:07:42;;;;;;;18.80;9.68;;;;;;;19.50;41.92;101292.59;1960397;73;21108;-62
2022/04/07 06:10:11;;;;;;;15.98;9.10;;;;;;;19.84;41.73;101290.29;1960730;73;21116;-60
2022/04/07 06:12:43;;;;;;;13.22;6.72;;;;;;;20.11;41.22;101285.33;1960617;73;21096;-59
2022/04/07 06:15:13;;;;;;;21.50;7.58;;;;;;;19.99;40.60;101288.36;1960751;73;21030;-60
2022/04/07 06:17:49;;;;;;;16.40;8.20;;;;;;;19.83;40.48;101276.57;1960615;73;21485;-62
2022/04/07 06:20:14;;;;;;;16.95;8.10;;;;;;;19.77;39.76;101278.31;1958522;73;21474;-59
2022/04/07 06:22:44;;;;;;;9.58;5.40;;;;;;;19.78;39.63;101277.37;1960638;73;21016;-60
2022/04/07 06:25:14;;;;;;;13.85;7.50;;;;;;;19.79;39.12;101277.72;1997996;72;21545;-61
2022/04/07 06:27:44;;;;;;;12.28;6.53;;;;;;;19.65;38.65;101280.84;1998065;72;21011;-62
2022/04/07 06:30:16;;;;;;;14.85;6.58;;;;;;;19.65;38.75;101267.97;1993944;72;21080;-61
2022/04/07 06:32:45;;;;;;;14.80;7.83;;;;;;;19.59;38.35;101282.61;1997810;72;21085;-62
2022/04/07 06:35:16;;;;;;;15.78;8.75;;;;;;;19.65;38.33;101267.97;1998044;72;21085;-61
2022/04/07 06:37:59;;;;;;;15.80;6.95;;;;;;;20.00;38.33;101269.55;1997913;72;21454;-60
2022/04/07 06:40:31;;;;;;;14.43;7.05;;;;;;;20.21;38.16;101262.30;1994969;72;21109;-60
2022/04/07 06:43:00;;;;;;;9.68;5.00;;;;;;;20.47;37.27;101252.89;1963681;72;21101;-63
2022/04/07 06:45:30;;;;;;;13.95;4.97;;;;;;;20.43;36.74;101259.78;1962175;73;21085;-62
2022/04/07 06:47:58;;;;;;;12.80;5.75;;;;;;;20.37;37.12;101248.20;1962368;73;21031;-60
2022/04/07 06:50:27;;;;;;;8.60;4.55;;;;;;;20.53;37.11;101245.77;1962263;73;21067;-61
2022/04/07 06:52:57;;;;;;;9.00;4.35;;;;;;;20.60;36.71;101242.56;1988890;72;21066;-60
2022/04/07 06:55:26;;;;;;;12.03;5.58;;;;;;;20.69;36.53;101239.67;1991843;72;21547;-60
2022/04/07 06:58:00;;;;;;;9.60;4.58;;;;;;;20.79;36.45;101234.52;1962425;73;21618;-61
2022/04/07 07:00:34;;;;;;;10.30;4.83;;;;;;;20.97;35.76;101227.78;1962359;73;21030;-61
2022/04/07 07:03:04;;;;;;;11.00;6.17;;;;;;;20.81;35.42;101216.03;1964560;72;21507;-60
2022/04/07 07:05:35;;;;;;;9.60;4.60;;;;;;;21.03;35.50;101213.58;1962280;73;20999;-61
2022/04/07 07:08:14;;;;;;;6.58;4.08;;;;;;;21.12;34.55;101209.70;1962421;73;21104;-60
2022/04/07 07:10:50;;;;;;;11.75;5.50;;;;;;;21.01;34.34;101205.66;1962286;73;21023;-61
2022/04/07 07:13:23;;;;;;;11.88;5.35;;;;;;;20.93;34.12;101207.55;1963576;72;21464;-58
2022/04/07 07:15:50;;;;;;;5.95;3.85;;;;;;;21.05;34.32;101203.11;1962333;72;21063;-60
2022/04/07 07:18:18;;;;;;;17.40;5.67;;;;;;;21.38;33.93;101198.32;1962267;73;21426;-60
2022/04/07 07:20:47;;;;;;;11.48;5.15;;;;;;;21.28;33.13;101193.79;1962147;73;21097;-61
2022/04/07 07:23:16;;;;;;;8.43;3.25;;;;;;;21.59;33.43;101193.14;1966149;72;20987;-61
2022/04/07 07:25:44;;;;;;;9.60;5.08;;;;;;;21.80;33.00;101188.42;1981831;72;21134;-61
2022/04/07 07:28:13;;;;;;;6.72;3.58;;;;;;;22.05;32.51;101185.11;1980791;72;21113;-60
2022/04/07 07:30:42;;;;;;;8.48;4.47;;;;;;;21.94;31.99;101181.45;1980753;72;21530;-60
2022/04/07 07:33:11;;;;;;;6.12;3.37;;;;;;;22.16;32.27;101171.68;1961340;72;21458;-63
2022/04/07 07:35:42;;;;;;;13.20;5.37;;;;;;;22.43;32.23;101182.48;1957535;73;21043;-60
2022/04/07 07:38:09;;;;;;;7.83;3.50;;;;;;;22.70;32.02;101178.89;1957655;72;21031;-63
2022/04/07 07:40:39;;;;;;;12.20;4.33;;;;;;;23.02;31.85;101171.76;1979485;72;21132;-63
2022/04/07 07:43:07;;;;;;;9.30;4.87;;;;;;;23.28;31.73;101168.24;1980775;72;21537;-63
2022/04/07 07:45:36;;;;;;;12.93;5.58;;;;;;;23.38;30.87;101170.47;1980812;72;21108;-63
2022/04/07 07:48:05;;;;;;;15.30;6.70;;;;;;;23.26;30.27;101168.87;1980758;72;21569;-61
2022/04/07 07:50:34;;;;;;;14.68;5.80;;;;;;;22.70;30.27;101159.23;1980798;72;21028;-63
2022/04/07 07:53:03;;;;;;;21.70;7.90;;;;;;;22.48;30.60;101151.64;1974683;72;21104;-62
2022/04/07 07:55:35;;;;;;;15.23;7.17;;;;;;;22.29;30.88;101142.91;1957587;73;20991;-62
2022/04/07 07:58:01;;;;;;;21.73;9.03;;;;;;;22.30;31.06;101149.98;1957072;73;21059;-63
2022/04/07 08:00:30;;;;;;;11.15;5.87;;;;;;;22.45;31.31;101138.97;1957469;73;21043;-60
2022/04/07 08:02:59;;;;;;;17.67;8.33;;;;;;;22.62;30.97;101149.14;1959341;72;21020;-61
2022/04/07 08:08:21;;;;;;;15.50;4.75;;;;;;;22.59;30.86;101141.33;1972764;71;21083;-58
2022/04/07 08:10:50;;;;;;;8.28;4.25;;;;;;;22.71;30.71;101124.20;1993170;72;21031;-60
2022/04/07 08:13:19;;;;;;;15.28;5.83;;;;;;;22.71;30.87;101124.20;1972420;72;21031;-59
2022/04/07 08:15:47;;;;;;;10.80;4.65;;;;;;;23.00;30.97;101120.89;1957620;73;21086;-61
2022/04/07 08:18:16;;;;;;;10.82;4.72;;;;;;;23.27;30.91;101112.30;1958348;72;21032;-61
2022/04/07 08:20:45;;;;;;;9.23;3.42;;;;;;;23.50;30.56;101104.92;1959963;72;21036;-61
2022/04/07 08:23:14;;;;;;;7.80;3.77;;;;;;;23.55;30.42;101103.66;1959431;72;21106;-62
2022/04/07 08:25:42;;;;;;;7.80;3.83;;;;;;;23.58;30.13;101100.71;1971545;72;21017;-64
2022/04/07 08:28:11;;;;;;;7.72;3.90;;;;;;;23.78;30.23;101087.69;1958016;72;21033;-61
2022/04/07 08:30:40;;;;;;;5.35;2.15;;;;;;;24.22;30.15;101088.72;1957539;73;21044;-61
2022/04/07 08:33:09;;;;;;;9.33;3.42;;;;;;;24.42;29.77;101092.25;1957544;73;21029;-60
2022/04/07 08:35:37;;;;;;;6.78;3.45;;;;;;;24.26;29.47;101092.83;1957656;73;21157;-61
2022/04/07 08:38:06;;;;;;;9.40;3.55;;;;;;;24.50;29.87;101076.25;1973567;72;21154;-62
2022/04/07 08:40:38;;;;;;;4.08;2.20;;;;;;;24.91;29.75;101063.46;1972809;72;21109;-61
2022/04/07 08:43:08;;;;;;;7.20;3.30;;;;;;;25.12;28.65;101071.36;1983287;72;21011;-61
2022/04/07 08:45:38;;;;;;;5.35;3.02;;;;;;;24.75;28.66;101052.44;1957637;73;21037;-62
2022/04/07 08:48:09;;;;;;;13.95;4.72;;;;;;;25.11;28.76;101043.22;1974553;72;21117;-61
2022/04/07 08:50:40;;;;;;;13.90;6.10;;;;;;;25.08;28.31;101038.95;1989887;72;21586;-63
2022/04/07 08:53:10;;;;;;;24.23;8.60;;;;;;;25.17;28.74;101034.53;1993143;72;21165;-63
2022/04/07 08:55:39;;;;;;;11.00;4.00;;;;;;;25.51;28.59;101031.27;1993214;72;21032;-63
2022/04/07 08:58:10;;;;;;;8.05;3.52;;;;;;;25.53;28.21;101027.45;1964069;72;21143;-64
2022/04/07 09:00:39;;;;;;;5.85;3.40;;;;;;;25.69;28.34;101027.27;1957582;73;21034;-63
2022/04/07 09:03:07;;;;;;;9.25;3.77;;;;;;;25.76;28.23;101012.19;1957828;73;21082;-61
2022/04/07 09:05:36;;;;;;;7.60;2.92;;;;;;;26.15;28.17;101000.64;1960825;72;21462;-63
2022/04/07 09:08:07;;;;;;;9.30;2.83;;;;;;;26.28;27.81;100989.92;1994242;72;21488;-63
2022/04/07 09:10:35;;;;;;;4.35;2.05;;;;;;;26.50;27.93;100984.02;1994164;72;21040;-60
2022/04/07 09:13:05;;;;;;;11.28;4.85;;;;;;;26.98;28.02;100983.66;1994144;72;21117;-62
2022/04/07 09:15:33;;;;;;;9.80;4.75;;;;;;;27.05;27.46;100973.91;1994341;72;21453;-61
2022/04/07 09:18:04;;;;;;;12.45;4.53;;;;;;;27.02;27.13;100976.92;1994133;72;21085;-63
2022/04/07 09:20:35;;;;;;;21.77;7.95;;;;;;;26.55;26.99;100962.79;1986760;72;21437;-63
2022/04/07 09:23:05;;;;;;;20.62;9.98;;;;;;;26.46;27.30;100966.44;1956529;73;21035;-62
2022/04/07 09:25:34;;;;;;;13.28;6.10;;;;;;;26.40;27.27;100949.54;1957604;73;21071;-63
2022/04/07 09:28:03;;;;;;;21.52;7.92;;;;;;;26.51;27.29;100942.52;1957750;73;21019;-63
2022/04/07 09:30:38;;;;;;;20.72;9.00;;;;;;;26.45;26.94;100939.12;1959428;72;21099;-60
2022/04/07 09:33:08;;;;;;;8.88;3.40;;;;;;;26.36;26.98;100936.02;1993273;72;21454;-61
2022/04/07 09:35:40;;;;;;;8.20;3.80;;;;;;;26.35;26.83;100919.47;1990720;72;21516;-64
2022/04/07 09:38:10;;;;;;;20.60;8.85;;;;;;;26.48;26.96;100914.99;1989470;72;21140;-63
2022/04/07 09:40:42;;;;;;;23.85;9.83;;;;;;;26.57;26.91;100914.87;1993185;72;21140;-62
2022/04/07 09:43:11;;;;;;;25.30;9.03;;;;;;;26.45;26.84;100901.32;1993050;72;21024;-61
2022/04/07 09:45:42;;;;;;;19.92;10.00;;;;;;;26.54;27.02;100890.91;1992181;72;21341;-62
2022/04/07 09:48:12;;;;;;;28.92;12.40;;;;;;;26.64;27.17;100892.16;1993037;72;21019;-63
2022/04/07 09:50:41;;;;;;;15.90;6.58;;;;;;;26.86;27.17;100895.31;1992669;72;21139;-62
2022/04/07 09:53:10;;;;;;;13.05;5.30;;;;;;;26.83;26.74;100887.01;1993216;72;21026;-61
2022/04/07 09:55:42;;;;;;;14.00;4.87;;;;;;;26.54;26.43;100881.45;1982525;72;21552;-62
2022/04/07 09:58:17;;;;;;;14.98;6.30;;;;;;;26.29;26.27;100882.32;1957805;73;21082;-61
2022/04/07 10:00:42;;;;;;;12.25;5.75;;;;;;;26.14;26.63;100870.75;1956009;73;21035;-60
2022/04/07 10:03:13;;;;;;;28.57;11.40;;;;;;;26.42;26.89;100859.78;1957733;73;21112;-63
2022/04/07 10:05:42;;;;;;;8.73;4.10;;;;;;;26.62;26.94;100856.38;1960225;72;21007;-60
2022/04/07 10:08:12;;;;;;;12.30;4.95;;;;;;;26.59;26.52;100860.20;1963261;73;21499;-63
2022/04/07 10:10:42;;;;;;;11.60;4.70;;;;;;;26.39;26.16;100856.05;1975233;73;21104;-61
2022/04/07 10:13:12;;;;;;;12.80;5.78;;;;;;;26.31;26.38;100847.92;1975009;73;21456;-60
2022/04/07 10:15:41;;;;;;;21.00;8.53;;;;;;;26.52;26.49;100849.73;1975318;71;21436;-61
2022/04/07 10:18:13;;;;;;;20.95;8.13;;;;;;;26.75;26.60;100851.88;2012621;71;20994;-60
2022/04/07 10:20:45;;;;;;;21.35;8.63;;;;;;;26.68;26.46;100842.73;2013847;71;21002;-61
2022/04/07 10:23:36;;;;;;;26.50;10.40;;;;;;;26.76;26.67;100844.09;2014976;71;21437;-62
2022/04/07 10:26:06;;;;;;;24.85;9.13;;;;;;;26.62;26.48;100836.64;2014944;71;21514;-62
2022/04/07 10:28:35;;;;;;;21.20;10.23;;;;;;;26.82;26.72;100829.09;1979473;71;21093;-62
2022/04/07 10:31:16;;;;;;;16.15;6.37;;;;;;;26.78;26.76;100828.56;1975138;73;21078;-62
2022/04/07 10:33:48;;;;;;;13.22;5.50;;;;;;;26.73;26.86;100825.53;1975149;73;21034;-60
2022/04/07 10:36:21;;;;;;;12.30;5.87;;;;;;;26.65;26.83;100821.44;1974986;73;21108;-62
2022/04/07 10:38:52;;;;;;;15.80;6.60;;;;;;;26.53;26.87;100809.55;1977435;71;21054;-61
2022/04/07 10:41:41;;;;;;;9.33;4.62;;;;;;;26.56;26.86;100803.00;1975105;73;21100;-61
2022/04/07 10:44:13;;;;;;;14.05;5.78;;;;;;;26.52;26.99;100802.48;1975117;73;21030;-61
2022/04/07 10:46:42;;;;;;;12.15;5.40;;;;;;;26.15;26.87;100809.05;1974982;73;21030;-60
2022/04/07 10:49:13;;;;;;;12.50;4.78;;;;;;;26.05;27.24;100808.81;2001106;71;21476;-62
2022/04/07 10:51:54;;;;;;;10.88;4.12;;;;;;;26.08;27.38;100797.20;2008560;71;21054;-60
2022/04/07 10:54:24;;;;;;;7.60;3.42;;;;;;;26.16;27.43;100801.79;2010990;71;21147;-63
2022/04/07 10:56:56;;;;;;;8.50;3.62;;;;;;;26.27;27.54;100797.97;2010902;71;21503;-61
2022/04/07 10:59:28;;;;;;;6.72;3.17;;;;;;;26.35;27.34;100789.90;2012088;71;21148;-61
2022/04/07 11:02:10;;;;;;;7.12;2.95;;;;;;;26.25;27.57;100782.45;1994406;71;21144;-63
2022/04/07 11:05:02;;;;;;;10.58;3.10;;;;;;;25.99;27.29;100777.92;2010101;71;21019;-65
2022/04/07 11:07:39;;;;;;;6.37;2.98;;;;;;;25.62;27.71;100774.44;1996239;71;21069;-63
2022/04/07 11:10:11;;;;;;;5.15;2.33;;;;;;;25.62;28.03;100770.39;1975633;71;21047;-59
2022/04/07 11:13:02;;;;;;;4.85;2.40;;;;;;;25.52;28.00;100760.20;1973402;72;21120;-61
2022/04/07 11:15:33;;;;;;;4.12;2.30;;;;;;;25.36;28.02;100755.55;1952226;72;21022;-60
2022/04/07 11:18:07;;;;;;;8.98;2.90;;;;;;;25.29;28.01;100743.69;1976454;72;21122;-62
2022/04/07 11:20:34;;;;;;;;;;;;;;;25.03;27.92;100755.21;1957079;72;21434;-60
2022/04/07 11:23:09;;;;;;;4.97;2.70;;;;;;;24.62;27.97;100753.45;1994199;72;20113;-61
2022/04/07 11:25:42;;;;;;;10.32;2.98;;;;;;;24.20;28.30;100748.53;1994170;72;21105;-61
2022/04/07 11:28:17;;;;;;;7.10;2.85;;;;;;;23.76;28.70;100732.09;1994488;72;21085;-62
2022/04/07 11:31:04;;;;;;;6.67;2.67;;;;;;;23.64;28.97;100729.22;1994229;72;21101;-62
2022/04/07 11:33:29;;;;;;;5.42;2.25;;;;;;;23.53;29.32;100721.33;1980649;72;21051;-60
2022/04/07 11:36:03;;;;;;;4.90;2.27;;;;;;;23.36;29.41;100715.70;1974110;72;21007;-62
2022/04/07 11:38:46;;;;;;;4.75;2.10;;;;;;;23.28;29.60;100708.86;1975679;72;21449;-62